createdAt,value
2023-03-07T00:01:30.184Z,85.25
2023-03-07T00:03:59.309Z,85.39
2023-03-07T00:06:27.361Z,85.75
2023-03-07T00:08:59.924Z,85.56
2023-03-07T00:11:28.914Z,85.45
2023-03-07T00:13:57.318Z,84.88
2023-03-07T00:16:25.977Z,85.15
2023-03-07T00:18:54.793Z,85.53
2023-03-07T00:21:22.992Z,85.60
2023-03-07T00:23:54.238Z,85.67
2023-03-07T00:26:24.444Z,85.59
2023-03-07T00:28:55.046Z,85.78
2023-03-07T00:31:24.378Z,85.52
2023-03-07T00:33:52.071Z,85.88
2023-03-07T00:36:23.144Z,85.86
2023-03-07T00:38:52.025Z,85.93
2023-03-07T00:41:25.411Z,85.51
2023-03-07T00:43:55.127Z,85.80
2023-03-07T00:46:25.236Z,85.82
2023-03-07T00:48:53.353Z,86.03
2023-03-07T00:51:22.368Z,85.95
2023-03-07T00:53:51.092Z,86.02
2023-03-07T00:56:25.254Z,86.18
2023-03-07T00:58:53.250Z,86.04
2023-03-07T01:01:25.696Z,86.61
2023-03-07T01:03:54.236Z,86.57
2023-03-07T01:06:27.131Z,86.60
2023-03-07T01:08:58.063Z,86.32
2023-03-07T01:11:26.571Z,85.96
2023-03-07T01:13:59.433Z,86.01
2023-03-07T01:16:34.121Z,85.52
2023-03-07T01:19:06.724Z,85.40
2023-03-07T01:21:40.491Z,85.46
2023-03-07T01:24:13.762Z,85.06
2023-03-07T01:26:41.183Z,85.16
2023-03-07T01:29:11.861Z,84.49
2023-03-07T01:31:39.586Z,84.87
2023-03-07T01:34:07.952Z,85.07
2023-03-07T01:36:37.055Z,84.13
2023-03-07T01:39:15.917Z,84.37
2023-03-07T01:41:45.229Z,83.94
2023-03-07T01:44:26.013Z,84.22
2023-03-07T01:47:00.801Z,84.74
2023-03-07T01:49:41.040Z,84.62
2023-03-07T01:52:43.116Z,84.14
2023-03-07T01:55:22.680Z,84.07
2023-03-07T01:57:52.489Z,84.53
2023-03-07T02:00:29.871Z,84.09
2023-03-07T02:03:17.536Z,83.94
2023-03-07T02:06:10.672Z,83.71
2023-03-07T02:08:40.299Z,83.79
2023-03-07T02:11:08.553Z,83.97
2023-03-07T02:13:35.969Z,83.84
2023-03-07T02:16:05.908Z,83.61
2023-03-07T02:18:42.043Z,83.28
2023-03-07T02:21:32.922Z,83.50
2023-03-07T02:24:32.458Z,83.23
2023-03-07T02:26:59.982Z,83.54
2023-03-07T02:29:27.250Z,83.58
2023-03-07T02:31:54.752Z,83.34
2023-03-07T02:34:27.276Z,82.88
2023-03-07T02:37:05.014Z,82.82
2023-03-07T02:39:33.260Z,82.67
2023-03-07T02:42:08.272Z,82.89
2023-03-07T02:44:35.554Z,83.32
2023-03-07T02:47:03.285Z,83.20
2023-03-07T02:49:30.563Z,82.81
2023-03-07T02:52:00.745Z,82.37
2023-03-07T02:54:28.090Z,83.05
2023-03-07T02:56:55.648Z,83.88
2023-03-07T02:59:22.957Z,83.59
2023-03-07T03:01:50.658Z,82.98
2023-03-07T03:04:18.125Z,82.82
2023-03-07T03:06:45.691Z,82.95
2023-03-07T03:09:13.020Z,82.54
2023-03-07T03:11:40.550Z,82.59
2023-03-07T03:14:07.999Z,82.43
2023-03-07T03:16:35.542Z,82.20
2023-03-07T03:19:03.520Z,82.15
2023-03-07T03:21:31.635Z,82.12
2023-03-07T03:23:58.925Z,82.36
2023-03-07T03:26:26.499Z,82.11
2023-03-07T03:28:55.078Z,81.09
2023-03-07T03:31:22.685Z,81.31
2023-03-07T03:33:52.328Z,81.83
2023-03-07T03:36:20.433Z,81.78
2023-03-07T03:38:47.668Z,81.67
2023-03-07T03:41:16.155Z,81.78
2023-03-07T03:43:43.613Z,81.01
2023-03-07T03:46:11.444Z,81.19
2023-03-07T03:48:38.859Z,81.47
2023-03-07T03:51:12.370Z,81.81
2023-03-07T03:53:40.243Z,81.79
2023-03-07T03:56:15.939Z,81.48
2023-03-07T03:58:44.305Z,81.81
2023-03-07T04:01:13.018Z,81.96
2023-03-07T04:03:44.280Z,82.50
2023-03-07T04:06:15.592Z,82.29
2023-03-07T04:08:42.981Z,81.96
2023-03-07T04:11:10.753Z,82.22
2023-03-07T04:13:38.059Z,82.45
2023-03-07T04:16:06.404Z,81.72
2023-03-07T04:18:35.545Z,82.17
2023-03-07T04:21:06.102Z,81.38
2023-03-07T04:23:34.134Z,81.75
2023-03-07T04:26:05.215Z,81.69
2023-03-07T04:28:45.402Z,81.79
2023-03-07T04:31:22.710Z,82.02
2023-03-07T04:33:51.229Z,81.21
2023-03-07T04:36:19.057Z,81.39
2023-03-07T04:38:48.668Z,81.91
2023-03-07T04:41:23.144Z,81.87
2023-03-07T04:43:50.510Z,81.73
2023-03-07T04:46:19.637Z,81.74
2023-03-07T04:48:47.841Z,81.50
2023-03-07T04:51:15.927Z,81.44
2023-03-07T04:53:44.334Z,81.16
2023-03-07T04:56:15.313Z,81.83
2023-03-07T04:58:44.155Z,81.69
2023-03-07T05:01:11.814Z,81.84
2023-03-07T05:03:39.139Z,81.72
2023-03-07T05:06:11.174Z,81.54
2023-03-07T05:08:38.425Z,81.31
2023-03-07T05:11:06.329Z,81.61
2023-03-07T05:13:33.833Z,81.96
2023-03-07T05:16:01.728Z,82.08
2023-03-07T05:18:29.656Z,82.13
2023-03-07T05:20:57.321Z,82.08
2023-03-07T05:23:24.855Z,81.43
2023-03-07T05:25:52.382Z,81.29
2023-03-07T05:28:19.740Z,81.67
2023-03-07T05:30:48.139Z,81.74
2023-03-07T05:33:15.806Z,81.78
2023-03-07T05:35:43.509Z,81.68
2023-03-07T05:38:11.489Z,81.56
2023-03-07T05:40:39.426Z,81.67
2023-03-07T05:43:06.776Z,81.32
2023-03-07T05:45:34.339Z,80.61
2023-03-07T05:48:02.091Z,80.75
2023-03-07T05:50:30.719Z,80.95
2023-03-07T05:52:57.999Z,80.07
2023-03-07T05:55:25.802Z,80.40
2023-03-07T05:57:53.163Z,80.52
2023-03-07T06:00:21.658Z,80.04
2023-03-07T06:02:48.928Z,79.61
2023-03-07T06:05:17.078Z,79.91
2023-03-07T06:07:44.690Z,79.21
2023-03-07T06:10:13.371Z,78.91
2023-03-07T06:12:40.707Z,78.91
2023-03-07T06:15:09.066Z,78.38
2023-03-07T06:17:37.177Z,78.10
2023-03-07T06:20:06.168Z,78.18
2023-03-07T06:22:34.731Z,78.16
2023-03-07T06:25:02.335Z,77.42
2023-03-07T06:27:37.128Z,77.28
2023-03-07T06:30:07.640Z,77.58
2023-03-07T06:32:35.014Z,77.67
2023-03-07T06:35:02.614Z,77.09
2023-03-07T06:37:29.844Z,76.43
2023-03-07T06:39:57.604Z,75.42
2023-03-07T06:42:24.913Z,75.60
2023-03-07T06:44:52.642Z,75.66
2023-03-07T06:47:19.969Z,74.70
2023-03-07T06:49:47.457Z,74.98
2023-03-07T06:52:14.713Z,74.36
2023-03-07T06:54:42.226Z,73.99
2023-03-07T06:57:09.527Z,73.73
2023-03-07T06:59:37.032Z,73.23
2023-03-07T07:02:05.590Z,72.97
2023-03-07T07:04:33.835Z,73.21
2023-03-07T07:07:01.125Z,72.84
2023-03-07T07:09:29.220Z,72.57
2023-03-07T07:11:56.461Z,71.90
2023-03-07T07:14:24.227Z,70.52
2023-03-07T07:16:51.564Z,69.08
2023-03-07T07:19:19.144Z,69.42
2023-03-07T07:21:46.453Z,68.07
2023-03-07T07:24:14.106Z,66.35
2023-03-07T07:26:41.383Z,66.01
2023-03-07T07:29:09.006Z,64.70
2023-03-07T07:31:36.402Z,66.27
2023-03-07T07:34:04.527Z,65.93
2023-03-07T07:36:32.710Z,67.22
2023-03-07T07:39:05.460Z,66.76
2023-03-07T07:41:34.643Z,66.74
2023-03-07T07:44:02.420Z,66.39
2023-03-07T07:46:29.953Z,66.90
2023-03-07T07:48:57.542Z,66.90
2023-03-07T07:51:24.849Z,66.59
2023-03-07T07:53:52.560Z,66.10
2023-03-07T07:56:19.843Z,64.82
2023-03-07T07:58:48.116Z,64.13
2023-03-07T08:01:22.023Z,63.53
2023-03-07T08:03:49.852Z,61.93
2023-03-07T08:06:27.380Z,60.14
2023-03-07T08:08:56.017Z,59.31
2023-03-07T08:11:24.266Z,57.87
2023-03-07T08:13:52.041Z,55.57
2023-03-07T08:16:22.763Z,53.92
2023-03-07T08:18:54.419Z,53.79
2023-03-07T08:21:22.567Z,53.99
2023-03-07T08:23:50.383Z,52.91
2023-03-07T08:26:18.053Z,49.17
2023-03-07T08:28:46.206Z,43.96
2023-03-07T08:31:21.120Z,41.63
2023-03-07T08:33:49.754Z,40.64
2023-03-07T08:36:17.108Z,41.80
2023-03-07T08:38:50.917Z,40.64
2023-03-07T08:41:20.735Z,41.76
2023-03-07T08:43:48.575Z,41.22
2023-03-07T08:46:16.594Z,42.03
2023-03-07T08:48:44.277Z,40.58
2023-03-07T08:51:16.581Z,39.22
2023-03-07T08:53:46.307Z,37.03
2023-03-07T08:56:18.026Z,39.31
2023-03-07T08:58:46.602Z,40.11
2023-03-07T09:01:14.243Z,39.25
2023-03-07T09:03:43.636Z,39.94
2023-03-07T09:06:20.639Z,41.51
2023-03-07T09:08:49.620Z,42.58
2023-03-07T09:11:19.318Z,42.51
2023-03-07T09:13:52.358Z,44.62
2023-03-07T09:16:21.950Z,43.90
2023-03-07T09:18:50.594Z,45.38
2023-03-07T09:21:18.157Z,45.37
2023-03-07T09:23:45.789Z,47.02
2023-03-07T09:26:13.316Z,48.04
2023-03-07T09:28:41.480Z,48.52
2023-03-07T09:31:11.915Z,48.23
2023-03-07T09:33:40.142Z,48.55
2023-03-07T09:36:11.404Z,49.26
2023-03-07T09:38:39.896Z,48.62
2023-03-07T09:41:41.076Z,48.62
2023-03-07T09:44:44.883Z,49.62
2023-03-07T09:47:39.226Z,43.86
2023-03-07T09:50:29.596Z,37.79
2023-03-07T09:53:04.019Z,38.83
2023-03-07T09:55:32.667Z,37.01
2023-03-07T09:58:16.122Z,38.15
2023-03-07T10:00:45.791Z,37.90
2023-03-07T10:03:46.250Z,31.73
2023-03-07T10:06:30.676Z,25.67
2023-03-07T10:09:01.395Z,25.19
2023-03-07T10:12:40.023Z,24.22
2023-03-07T10:15:45.830Z,25.57
2023-03-07T10:18:46.578Z,23.60
2023-03-07T10:21:38.332Z,26.73
2023-03-07T10:24:38.842Z,24.78
2023-03-07T10:27:10.780Z,25.02
2023-03-07T10:29:52.016Z,22.21
2023-03-07T10:32:35.037Z,18.85
2023-03-07T10:35:21.592Z,17.57
2023-03-07T10:37:57.151Z,15.83
2023-03-07T10:40:48.925Z,15.81
2023-03-07T10:43:36.794Z,17.83
2023-03-07T10:46:25.098Z,16.38
2023-03-07T10:49:16.952Z,20.35
2023-03-07T10:51:57.599Z,22.77
2023-03-07T10:54:32.351Z,22.25
2023-03-07T10:57:10.284Z,23.19
2023-03-07T10:59:43.696Z,22.60
2023-03-07T11:02:44.858Z,21.92
2023-03-07T11:05:36.678Z,24.82
2023-03-07T11:08:34.103Z,28.02
2023-03-07T11:11:04.843Z,30.70
2023-03-07T11:13:32.626Z,31.22
2023-03-07T11:16:20.328Z,32.30
2023-03-07T11:18:48.146Z,32.79
2023-03-07T11:21:36.165Z,34.31
2023-03-07T11:24:20.377Z,35.53
2023-03-07T11:26:54.329Z,35.74
2023-03-07T11:29:22.255Z,36.35
2023-03-07T11:32:12.332Z,36.54
2023-03-07T11:35:08.150Z,38.03
2023-03-07T11:37:49.275Z,38.60
2023-03-07T11:40:26.796Z,36.97
2023-03-07T11:43:13.479Z,37.12
2023-03-07T11:46:17.814Z,37.04
2023-03-07T11:49:27.208Z,36.52
2023-03-07T11:52:17.731Z,36.71
2023-03-07T11:54:57.300Z,35.58
2023-03-07T11:57:36.912Z,33.05
2023-03-07T12:00:47.770Z,30.66
2023-03-07T12:03:20.906Z,29.97
2023-03-07T12:06:29.332Z,28.57
2023-03-07T12:09:22.158Z,30.63
2023-03-07T12:11:55.229Z,30.69
2023-03-07T12:14:56.221Z,31.07
2023-03-07T12:17:48.601Z,31.02
2023-03-07T12:20:31.071Z,30.91
2023-03-07T12:23:16.516Z,32.29
2023-03-07T12:25:58.514Z,32.94
2023-03-07T12:28:44.397Z,34.02
2023-03-07T12:31:32.438Z,35.25
2023-03-07T12:34:33.910Z,36.23
2023-03-07T12:37:16.651Z,36.61
2023-03-07T12:40:02.277Z,34.99
2023-03-07T12:42:56.090Z,35.19
2023-03-07T12:45:50.619Z,36.66
2023-03-07T12:48:52.099Z,37.39
2023-03-07T12:51:43.158Z,35.04
2023-03-07T12:54:34.147Z,35.18
2023-03-07T12:57:19.968Z,35.58
2023-03-07T12:59:50.847Z,35.77
2023-03-07T13:02:29.284Z,33.56
2023-03-07T13:04:59.016Z,33.21
2023-03-07T13:07:33.567Z,33.14
2023-03-07T13:10:07.160Z,33.16
2023-03-07T13:12:38.850Z,33.20
2023-03-07T13:15:38.621Z,33.22
2023-03-07T13:18:30.327Z,32.80
2023-03-07T13:21:14.183Z,32.56
2023-03-07T13:23:41.746Z,34.03
2023-03-07T13:26:22.531Z,34.67
2023-03-07T13:28:51.501Z,36.18
2023-03-07T13:31:18.981Z,36.23
2023-03-07T13:33:48.029Z,36.41
2023-03-07T13:36:38.768Z,36.48
2023-03-07T13:39:38.419Z,36.20
2023-03-07T13:42:46.439Z,36.16
2023-03-07T13:45:42.973Z,37.52
2023-03-07T13:48:30.866Z,38.79
2023-03-07T13:51:01.248Z,39.09
2023-03-07T13:53:31.392Z,38.59
2023-03-07T13:56:17.282Z,39.28
2023-03-07T13:59:18.360Z,39.30
2023-03-07T14:02:12.714Z,40.00
2023-03-07T14:04:56.000Z,40.79
2023-03-07T14:07:28.362Z,40.42
2023-03-07T14:10:23.782Z,40.52
2023-03-07T14:13:13.116Z,40.51
2023-03-07T14:16:09.970Z,41.33
2023-03-07T14:19:07.493Z,40.88
2023-03-07T14:21:57.126Z,40.64
2023-03-07T14:24:41.477Z,39.61
2023-03-07T14:27:16.500Z,38.94
2023-03-07T14:29:57.221Z,37.20
2023-03-07T14:32:30.914Z,37.02
2023-03-07T14:34:59.349Z,37.34
2023-03-07T14:37:32.787Z,36.29
2023-03-07T14:40:00.146Z,37.29
2023-03-07T14:43:22.829Z,38.12
2023-03-07T14:46:14.532Z,38.62
2023-03-07T14:49:23.998Z,37.96
2023-03-07T14:51:51.496Z,37.79
2023-03-07T14:54:29.778Z,39.15
2023-03-07T14:57:00.020Z,39.87
2023-03-07T14:59:29.379Z,40.00
2023-03-07T15:01:57.983Z,40.69
2023-03-07T15:04:28.820Z,40.20
2023-03-07T15:07:01.350Z,41.41
2023-03-07T15:09:30.654Z,42.35
2023-03-07T15:12:20.209Z,43.04
2023-03-07T15:15:03.291Z,43.14
2023-03-07T15:17:43.880Z,44.00
2023-03-07T15:20:19.366Z,45.14
2023-03-07T15:22:47.433Z,46.33
2023-03-07T15:25:25.244Z,46.88
2023-03-07T15:28:02.241Z,47.72
2023-03-07T15:30:36.937Z,48.45
2023-03-07T15:33:35.538Z,49.17
2023-03-07T15:36:12.369Z,49.63
2023-03-07T15:38:45.260Z,50.25
2023-03-07T15:41:33.896Z,50.41
2023-03-07T15:44:21.394Z,50.85
2023-03-07T15:46:56.442Z,51.19
2023-03-07T15:49:47.581Z,51.16
2023-03-07T15:52:31.802Z,51.63
2023-03-07T15:55:02.410Z,52.09
2023-03-07T15:57:47.980Z,52.03
2023-03-07T16:00:30.258Z,53.09
2023-03-07T16:03:25.798Z,53.66
2023-03-07T16:05:55.241Z,53.78
2023-03-07T16:08:23.878Z,54.69
2023-03-07T16:11:05.508Z,54.48
2023-03-07T16:13:40.988Z,54.75
2023-03-07T16:16:23.299Z,55.28
2023-03-07T16:18:52.083Z,55.56
2023-03-07T16:21:20.574Z,56.00
2023-03-07T16:23:48.545Z,56.67
2023-03-07T16:26:23.961Z,57.09
2023-03-07T16:28:53.806Z,56.85
2023-03-07T16:31:22.069Z,57.10
2023-03-07T16:33:49.850Z,57.70
2023-03-07T16:36:18.197Z,57.83
2023-03-07T16:38:47.295Z,58.53
2023-03-07T16:41:21.120Z,58.82
2023-03-07T16:43:57.953Z,58.62
2023-03-07T16:46:26.273Z,58.94
2023-03-07T16:48:53.982Z,59.30
2023-03-07T16:51:25.796Z,59.08
2023-03-07T16:53:53.696Z,60.23
2023-03-07T16:56:30.432Z,60.36
2023-03-07T16:59:00.510Z,60.51
2023-03-07T17:01:28.409Z,60.89
2023-03-07T17:03:56.714Z,61.47
2023-03-07T17:06:37.253Z,61.92
2023-03-07T17:09:09.487Z,61.12
2023-03-07T17:11:40.487Z,61.39
2023-03-07T17:14:09.699Z,61.71
2023-03-07T17:16:45.095Z,62.09
2023-03-07T17:19:31.103Z,61.93
2023-03-07T17:22:01.144Z,62.33
2023-03-07T17:24:29.690Z,63.01
2023-03-07T17:27:07.563Z,62.64
2023-03-07T17:29:45.462Z,63.18
2023-03-07T17:32:13.397Z,63.27
2023-03-07T17:34:41.152Z,63.53
2023-03-07T17:37:10.607Z,63.62
2023-03-07T17:39:39.008Z,63.78
2023-03-07T17:42:06.715Z,64.20
2023-03-07T17:44:34.552Z,64.67
2023-03-07T17:47:01.948Z,64.85
2023-03-07T17:49:38.663Z,65.57
2023-03-07T17:52:08.113Z,65.08
2023-03-07T17:54:36.222Z,65.33
2023-03-07T17:57:03.885Z,65.46
2023-03-07T17:59:34.305Z,65.83
2023-03-07T18:02:02.961Z,66.16
2023-03-07T18:04:31.933Z,66.11
2023-03-07T18:07:02.295Z,66.44
2023-03-07T18:09:31.207Z,66.82
2023-03-07T18:11:58.581Z,66.90
2023-03-07T18:14:27.968Z,67.28
2023-03-07T18:16:56.787Z,67.38
2023-03-07T18:19:27.224Z,66.88
2023-03-07T18:21:56.308Z,67.13
2023-03-07T18:24:31.661Z,68.03
2023-03-07T18:27:00.589Z,68.37
2023-03-07T18:29:29.712Z,68.87
2023-03-07T18:31:57.508Z,69.43
2023-03-07T18:34:25.669Z,69.09
2023-03-07T18:36:54.434Z,69.36
2023-03-07T18:39:24.128Z,69.46
2023-03-07T18:41:53.342Z,69.78
2023-03-07T18:44:21.541Z,70.47
2023-03-07T18:46:49.917Z,70.90
2023-03-07T18:49:17.958Z,70.52
2023-03-07T18:51:46.175Z,71.12
2023-03-07T18:54:14.267Z,71.35
2023-03-07T18:56:44.996Z,71.52
2023-03-07T18:59:13.767Z,71.66
2023-03-07T19:01:42.759Z,71.81
2023-03-07T19:04:11.765Z,71.72
2023-03-07T19:06:42.753Z,72.21
2023-03-07T19:09:19.777Z,72.29
2023-03-07T19:11:48.492Z,71.56
2023-03-07T19:14:16.429Z,71.99
2023-03-07T19:16:44.282Z,71.96
2023-03-07T19:19:12.073Z,72.15
2023-03-07T19:21:39.566Z,72.29
2023-03-07T19:24:11.555Z,72.49
2023-03-07T19:26:40.201Z,72.37
2023-03-07T19:29:09.849Z,71.97
2023-03-07T19:31:37.195Z,72.33
2023-03-07T19:34:06.453Z,71.63
2023-03-07T19:36:37.545Z,72.10
2023-03-07T19:39:06.284Z,72.19
2023-03-07T19:41:33.679Z,72.24
2023-03-07T19:44:01.821Z,72.34
2023-03-07T19:46:29.173Z,72.50
2023-03-07T19:48:56.938Z,72.36
2023-03-07T19:51:27.054Z,72.16
2023-03-07T19:53:57.504Z,72.00
2023-03-07T19:56:31.873Z,71.75
2023-03-07T19:59:02.167Z,71.86
2023-03-07T20:01:30.417Z,71.96
2023-03-07T20:03:58.788Z,72.29
2023-03-07T20:06:32.747Z,72.00
2023-03-07T20:09:01.514Z,71.86
2023-03-07T20:11:34.663Z,71.84
2023-03-07T20:14:05.786Z,72.29
2023-03-07T20:16:34.804Z,72.34
2023-03-07T20:19:09.213Z,72.63
2023-03-07T20:21:38.216Z,72.44
2023-03-07T20:24:08.223Z,72.16
2023-03-07T20:26:38.745Z,72.29
2023-03-07T20:29:08.636Z,72.34
2023-03-07T20:31:39.285Z,72.53
2023-03-07T20:34:08.157Z,72.64
2023-03-07T20:36:38.363Z,72.56
2023-03-07T20:39:14.652Z,72.57
2023-03-07T20:41:44.130Z,72.15
2023-03-07T20:44:14.884Z,71.83
2023-03-07T20:46:42.541Z,72.01
2023-03-07T20:49:14.151Z,72.51
2023-03-07T20:51:43.506Z,72.16
2023-03-07T20:54:14.773Z,72.72
2023-03-07T20:56:43.897Z,72.09
2023-03-07T20:59:16.048Z,72.41
2023-03-07T21:01:50.498Z,71.83
2023-03-07T21:04:20.602Z,71.95
2023-03-07T21:06:49.245Z,72.22
2023-03-07T21:09:18.478Z,72.32
2023-03-07T21:11:49.212Z,71.75
2023-03-07T21:14:19.560Z,71.76
2023-03-07T21:16:46.982Z,72.04
2023-03-07T21:19:14.880Z,71.33
2023-03-07T21:21:42.650Z,71.72
2023-03-07T21:24:15.911Z,72.08
2023-03-07T21:26:43.453Z,72.09
2023-03-07T21:29:11.183Z,72.17
2023-03-07T21:31:38.948Z,71.71
2023-03-07T21:34:11.302Z,71.50
2023-03-07T21:36:38.679Z,72.15
2023-03-07T21:39:09.951Z,72.46
2023-03-07T21:41:38.184Z,72.49
2023-03-07T21:44:06.251Z,72.15
2023-03-07T21:46:33.730Z,72.34
2023-03-07T21:49:01.692Z,72.63
2023-03-07T21:51:29.285Z,72.63
2023-03-07T21:53:56.896Z,72.67
2023-03-07T21:56:24.357Z,72.77
2023-03-07T21:59:01.183Z,73.05
2023-03-07T22:01:29.764Z,73.02
2023-03-07T22:03:59.693Z,73.30
2023-03-07T22:06:28.445Z,73.24
2023-03-07T22:08:56.396Z,73.07
2023-03-07T22:11:23.696Z,73.40
2023-03-07T22:13:51.414Z,74.01
2023-03-07T22:16:21.060Z,74.00
2023-03-07T22:18:53.730Z,74.20
2023-03-07T22:21:21.640Z,74.42
2023-03-07T22:23:49.288Z,74.22
2023-03-07T22:26:16.684Z,74.47
2023-03-07T22:28:44.198Z,74.28
2023-03-07T22:31:13.273Z,74.74
2023-03-07T22:33:41.834Z,75.18
2023-03-07T22:36:13.203Z,74.91
2023-03-07T22:38:42.865Z,75.35
2023-03-07T22:41:17.098Z,74.97
2023-03-07T22:43:45.268Z,75.07
2023-03-07T22:46:13.147Z,75.15
2023-03-07T22:48:41.097Z,75.66
2023-03-07T22:51:20.279Z,75.50
2023-03-07T22:53:48.404Z,75.93
2023-03-07T22:56:27.506Z,75.96
2023-03-07T22:58:55.388Z,76.05
2023-03-07T23:01:27.173Z,76.22
2023-03-07T23:03:57.370Z,76.21
2023-03-07T23:06:30.303Z,76.54
2023-03-07T23:08:59.868Z,76.30
2023-03-07T23:11:31.329Z,76.55
2023-03-07T23:14:00.079Z,77.18
2023-03-07T23:16:30.779Z,77.21
2023-03-07T23:18:59.936Z,77.03
2023-03-07T23:21:30.782Z,77.33
2023-03-07T23:23:59.975Z,77.40
2023-03-07T23:26:36.993Z,77.51
2023-03-07T23:29:09.873Z,78.22
2023-03-07T23:31:40.515Z,78.20
2023-03-07T23:34:19.091Z,78.47
2023-03-07T23:36:46.845Z,78.26
2023-03-07T23:39:16.677Z,78.60
2023-03-07T23:41:44.021Z,78.95
2023-03-07T23:44:12.232Z,79.00
2023-03-07T23:46:39.847Z,79.17
2023-03-07T23:49:07.424Z,79.51
2023-03-07T23:51:34.754Z,79.65
2023-03-07T23:54:02.341Z,79.61
2023-03-07T23:56:29.725Z,80.18
2023-03-07T23:58:57.233Z,80.06
